sensor_id;sensor_type;location;lat;lon;timestamp;P1;durP1;ratioP1;P2;durP2;ratioP2
16296;SDS011;8256;56.144;13.394;2023-04-24T00:00:15;0.57;;;0.20;;
16296;SDS011;8256;56.144;13.394;2023-04-24T00:03:01;0.63;;;0.20;;
16296;SDS011;8256;56.144;13.394;2023-04-24T00:05:48;0.65;;;0.25;;
16296;SDS011;8256;56.144;13.394;2023-04-24T00:08:34;0.13;;;0.00;;
16296;SDS011;8256;56.144;13.394;2023-04-24T00:11:20;0.55;;;0.10;;
16296;SDS011;8256;56.144;13.394;2023-04-24T00:14:05;0.65;;;0.20;;
16296;SDS011;8256;56.144;13.394;2023-04-24T00:16:51;0.28;;;0.10;;
16296;SDS011;8256;56.144;13.394;2023-04-24T00:19:37;0.10;;;0.00;;
16296;SDS011;8256;56.144;13.394;2023-04-24T00:22:22;0.60;;;0.30;;
16296;SDS011;8256;56.144;13.394;2023-04-24T00:25:08;0.32;;;0.13;;
16296;SDS011;8256;56.144;13.394;2023-04-24T00:27:53;1.85;;;0.10;;
16296;SDS011;8256;56.144;13.394;2023-04-24T00:30:39;0.40;;;0.10;;
16296;SDS011;8256;56.144;13.394;2023-04-24T00:33:25;0.40;;;0.10;;
16296;SDS011;8256;56.144;13.394;2023-04-24T00:36:10;0.30;;;0.20;;
16296;SDS011;8256;56.144;13.394;2023-04-24T00:38:56;0.30;;;0.10;;
16296;SDS011;8256;56.144;13.394;2023-04-24T00:41:42;0.93;;;0.30;;
16296;SDS011;8256;56.144;13.394;2023-04-24T00:44:27;0.10;;;0.00;;
16296;SDS011;8256;56.144;13.394;2023-04-24T00:47:13;0.10;;;0.00;;
16296;SDS011;8256;56.144;13.394;2023-04-24T00:50:03;0.30;;;0.13;;
16296;SDS011;8256;56.144;13.394;2023-04-24T00:52:48;0.17;;;0.00;;
16296;SDS011;8256;56.144;13.394;2023-04-24T00:55:34;0.77;;;0.30;;
16296;SDS011;8256;56.144;13.394;2023-04-24T00:58:20;0.15;;;0.00;;
16296;SDS011;8256;56.144;13.394;2023-04-24T01:01:06;0.77;;;0.30;;
16296;SDS011;8256;56.144;13.394;2023-04-24T01:03:52;0.30;;;0.10;;
16296;SDS011;8256;56.144;13.394;2023-04-24T01:06:40;0.25;;;0.00;;
16296;SDS011;8256;56.144;13.394;2023-04-24T01:09:27;0.20;;;0.00;;
16296;SDS011;8256;56.144;13.394;2023-04-24T01:12:13;0.93;;;0.55;;
16296;SDS011;8256;56.144;13.394;2023-04-24T01:14:58;0.60;;;0.28;;
16296;SDS011;8256;56.144;13.394;2023-04-24T01:17:44;0.43;;;0.10;;
16296;SDS011;8256;56.144;13.394;2023-04-24T01:20:30;0.45;;;0.20;;
16296;SDS011;8256;56.144;13.394;2023-04-24T01:23:17;0.55;;;0.20;;
16296;SDS011;8256;56.144;13.394;2023-04-24T01:26:02;0.28;;;0.10;;
16296;SDS011;8256;56.144;13.394;2023-04-24T01:28:48;0.38;;;0.30;;
16296;SDS011;8256;56.144;13.394;2023-04-24T01:31:33;0.10;;;0.00;;
16296;SDS011;8256;56.144;13.394;2023-04-24T01:34:19;0.30;;;0.10;;
16296;SDS011;8256;56.144;13.394;2023-04-24T01:37:05;0.40;;;0.22;;
16296;SDS011;8256;56.144;13.394;2023-04-24T01:39:51;0.35;;;0.10;;
16296;SDS011;8256;56.144;13.394;2023-04-24T01:42:36;0.25;;;0.08;;
16296;SDS011;8256;56.144;13.394;2023-04-24T01:45:22;0.10;;;0.00;;
16296;SDS011;8256;56.144;13.394;2023-04-24T01:48:07;0.60;;;0.30;;
16296;SDS011;8256;56.144;13.394;2023-04-24T01:50:53;0.73;;;0.43;;
16296;SDS011;8256;56.144;13.394;2023-04-24T01:53:38;0.10;;;0.00;;
16296;SDS011;8256;56.144;13.394;2023-04-24T01:56:24;0.20;;;0.00;;
16296;SDS011;8256;56.144;13.394;2023-04-24T01:59:11;0.50;;;0.10;;
16296;SDS011;8256;56.144;13.394;2023-04-24T02:01:56;0.40;;;0.08;;
16296;SDS011;8256;56.144;13.394;2023-04-24T02:04:42;0.73;;;0.30;;
16296;SDS011;8256;56.144;13.394;2023-04-24T02:07:27;0.55;;;0.25;;
16296;SDS011;8256;56.144;13.394;2023-04-24T02:10:13;0.82;;;0.60;;
16296;SDS011;8256;56.144;13.394;2023-04-24T02:12:58;3.27;;;0.13;;
16296;SDS011;8256;56.144;13.394;2023-04-24T02:15:45;0.68;;;0.20;;
16296;SDS011;8256;56.144;13.394;2023-04-24T02:18:30;0.10;;;0.00;;
16296;SDS011;8256;56.144;13.394;2023-04-24T02:21:16;0.70;;;0.20;;
16296;SDS011;8256;56.144;13.394;2023-04-24T02:24:01;0.57;;;0.13;;
16296;SDS011;8256;56.144;13.394;2023-04-24T02:26:47;0.40;;;0.23;;
16296;SDS011;8256;56.144;13.394;2023-04-24T02:29:32;0.05;;;0.00;;
16296;SDS011;8256;56.144;13.394;2023-04-24T02:32:18;0.13;;;0.00;;
16296;SDS011;8256;56.144;13.394;2023-04-24T02:35:04;0.65;;;0.30;;
16296;SDS011;8256;56.144;13.394;2023-04-24T02:37:49;0.10;;;0.00;;
16296;SDS011;8256;56.144;13.394;2023-04-24T02:40:35;0.73;;;0.23;;
16296;SDS011;8256;56.144;13.394;2023-04-24T02:43:20;0.93;;;0.35;;
16296;SDS011;8256;56.144;13.394;2023-04-24T02:46:06;0.30;;;0.10;;
16296;SDS011;8256;56.144;13.394;2023-04-24T02:48:51;0.85;;;0.20;;
16296;SDS011;8256;56.144;13.394;2023-04-24T02:51:37;0.47;;;0.10;;
16296;SDS011;8256;56.144;13.394;2023-04-24T02:54:26;3.17;;;0.20;;
16296;SDS011;8256;56.144;13.394;2023-04-24T02:57:11;0.40;;;0.15;;
16296;SDS011;8256;56.144;13.394;2023-04-24T02:59:57;0.35;;;0.22;;
16296;SDS011;8256;56.144;13.394;2023-04-24T03:02:42;0.10;;;0.00;;
16296;SDS011;8256;56.144;13.394;2023-04-24T03:05:28;3.40;;;0.30;;
16296;SDS011;8256;56.144;13.394;2023-04-24T03:08:13;0.93;;;0.30;;
16296;SDS011;8256;56.144;13.394;2023-04-24T03:10:59;0.90;;;0.38;;
16296;SDS011;8256;56.144;13.394;2023-04-24T03:13:45;0.10;;;0.00;;
16296;SDS011;8256;56.144;13.394;2023-04-24T03:16:33;0.45;;;0.10;;
16296;SDS011;8256;56.144;13.394;2023-04-24T03:19:19;0.20;;;0.00;;
16296;SDS011;8256;56.144;13.394;2023-04-24T03:22:04;0.20;;;0.00;;
16296;SDS011;8256;56.144;13.394;2023-04-24T03:24:50;0.50;;;0.10;;
16296;SDS011;8256;56.144;13.394;2023-04-24T03:27:35;0.28;;;0.15;;
16296;SDS011;8256;56.144;13.394;2023-04-24T03:30:21;0.05;;;0.00;;
16296;SDS011;8256;56.144;13.394;2023-04-24T03:33:07;0.40;;;0.10;;
16296;SDS011;8256;56.144;13.394;2023-04-24T03:35:52;0.20;;;0.00;;
16296;SDS011;8256;56.144;13.394;2023-04-24T03:38:38;0.25;;;0.08;;
16296;SDS011;8256;56.144;13.394;2023-04-24T03:41:23;0.20;;;0.00;;
16296;SDS011;8256;56.144;13.394;2023-04-24T03:44:09;0.20;;;0.00;;
16296;SDS011;8256;56.144;13.394;2023-04-24T03:46:55;2.00;;;0.50;;
16296;SDS011;8256;56.144;13.394;2023-04-24T03:49:40;1.23;;;0.27;;
16296;SDS011;8256;56.144;13.394;2023-04-24T03:52:26;0.40;;;0.10;;
16296;SDS011;8256;56.144;13.394;2023-04-24T03:55:12;0.20;;;0.00;;
16296;SDS011;8256;56.144;13.394;2023-04-24T03:57:58;0.82;;;0.38;;
16296;SDS011;8256;56.144;13.394;2023-04-24T04:00:44;0.47;;;0.22;;
16296;SDS011;8256;56.144;13.394;2023-04-24T04:03:30;0.50;;;0.10;;
16296;SDS011;8256;56.144;13.394;2023-04-24T04:06:15;0.40;;;0.10;;
16296;SDS011;8256;56.144;13.394;2023-04-24T04:09:01;0.65;;;0.35;;
16296;SDS011;8256;56.144;13.394;2023-04-24T04:11:46;0.65;;;0.25;;
16296;SDS011;8256;56.144;13.394;2023-04-24T04:14:32;0.70;;;0.30;;
16296;SDS011;8256;56.144;13.394;2023-04-24T04:17:23;0.43;;;0.10;;
16296;SDS011;8256;56.144;13.394;2023-04-24T04:20:09;0.40;;;0.10;;
16296;SDS011;8256;56.144;13.394;2023-04-24T04:22:56;1.00;;;0.45;;
16296;SDS011;8256;56.144;13.394;2023-04-24T04:25:41;1.00;;;0.20;;
16296;SDS011;8256;56.144;13.394;2023-04-24T04:28:27;0.73;;;0.35;;
16296;SDS011;8256;56.144;13.394;2023-04-24T04:31:13;1.23;;;0.67;;
16296;SDS011;8256;56.144;13.394;2023-04-24T04:33:59;0.85;;;0.20;;
16296;SDS011;8256;56.144;13.394;2023-04-24T04:36:44;0.90;;;0.38;;
16296;SDS011;8256;56.144;13.394;2023-04-24T04:39:31;2.25;;;0.70;;
16296;SDS011;8256;56.144;13.394;2023-04-24T04:42:17;1.77;;;1.05;;
16296;SDS011;8256;56.144;13.394;2023-04-24T04:45:04;0.60;;;0.10;;
16296;SDS011;8256;56.144;13.394;2023-04-24T04:47:50;0.65;;;0.20;;
16296;SDS011;8256;56.144;13.394;2023-04-24T04:50:35;0.82;;;0.20;;
16296;SDS011;8256;56.144;13.394;2023-04-24T04:53:21;1.13;;;0.45;;
16296;SDS011;8256;56.144;13.394;2023-04-24T04:56:30;1.13;;;0.65;;
16296;SDS011;8256;56.144;13.394;2023-04-24T04:59:15;0.87;;;0.30;;
16296;SDS011;8256;56.144;13.394;2023-04-24T05:02:01;1.35;;;0.45;;
16296;SDS011;8256;56.144;13.394;2023-04-24T05:04:47;1.08;;;0.28;;
16296;SDS011;8256;56.144;13.394;2023-04-24T05:07:33;1.65;;;0.40;;
16296;SDS011;8256;56.144;13.394;2023-04-24T05:10:19;1.17;;;0.38;;
16296;SDS011;8256;56.144;13.394;2023-04-24T05:13:07;1.60;;;0.60;;
16296;SDS011;8256;56.144;13.394;2023-04-24T05:15:53;1.35;;;0.47;;
16296;SDS011;8256;56.144;13.394;2023-04-24T05:18:38;1.27;;;0.65;;
16296;SDS011;8256;56.144;13.394;2023-04-24T05:21:24;2.45;;;1.45;;
16296;SDS011;8256;56.144;13.394;2023-04-24T05:24:15;0.95;;;0.13;;
16296;SDS011;8256;56.144;13.394;2023-04-24T05:27:04;2.23;;;1.03;;
16296;SDS011;8256;56.144;13.394;2023-04-24T05:29:50;1.58;;;0.40;;
16296;SDS011;8256;56.144;13.394;2023-04-24T05:32:44;1.13;;;0.40;;
16296;SDS011;8256;56.144;13.394;2023-04-24T05:35:30;0.95;;;0.20;;
16296;SDS011;8256;56.144;13.394;2023-04-24T05:38:19;0.93;;;0.20;;
16296;SDS011;8256;56.144;13.394;2023-04-24T05:41:06;2.40;;;1.40;;
16296;SDS011;8256;56.144;13.394;2023-04-24T05:43:52;1.83;;;0.45;;
16296;SDS011;8256;56.144;13.394;2023-04-24T05:46:37;1.17;;;0.40;;
16296;SDS011;8256;56.144;13.394;2023-04-24T05:49:23;1.52;;;0.50;;
16296;SDS011;8256;56.144;13.394;2023-04-24T05:52:09;2.05;;;0.35;;
16296;SDS011;8256;56.144;13.394;2023-04-24T05:54:55;1.70;;;0.60;;
16296;SDS011;8256;56.144;13.394;2023-04-24T05:57:40;1.08;;;0.40;;
16296;SDS011;8256;56.144;13.394;2023-04-24T06:00:26;1.27;;;0.60;;
16296;SDS011;8256;56.144;13.394;2023-04-24T06:03:12;1.70;;;0.47;;
16296;SDS011;8256;56.144;13.394;2023-04-24T06:05:57;1.27;;;0.40;;
16296;SDS011;8256;56.144;13.394;2023-04-24T06:08:43;1.83;;;0.70;;
16296;SDS011;8256;56.144;13.394;2023-04-24T06:11:29;1.13;;;0.28;;
16296;SDS011;8256;56.144;13.394;2023-04-24T06:14:15;1.55;;;0.38;;
16296;SDS011;8256;56.144;13.394;2023-04-24T06:17:00;1.27;;;0.43;;
16296;SDS011;8256;56.144;13.394;2023-04-24T06:19:46;1.48;;;0.55;;
16296;SDS011;8256;56.144;13.394;2023-04-24T06:22:31;1.70;;;0.70;;
16296;SDS011;8256;56.144;13.394;2023-04-24T06:25:17;2.03;;;0.57;;
16296;SDS011;8256;56.144;13.394;2023-04-24T06:28:02;1.38;;;0.43;;
16296;SDS011;8256;56.144;13.394;2023-04-24T06:30:48;1.65;;;0.50;;
16296;SDS011;8256;56.144;13.394;2023-04-24T06:33:33;2.13;;;0.85;;
16296;SDS011;8256;56.144;13.394;2023-04-24T06:36:19;2.63;;;0.80;;
16296;SDS011;8256;56.144;13.394;2023-04-24T06:39:05;1.13;;;0.30;;
16296;SDS011;8256;56.144;13.394;2023-04-24T06:41:50;2.15;;;0.82;;
16296;SDS011;8256;56.144;13.394;2023-04-24T06:44:36;1.38;;;0.35;;
16296;SDS011;8256;56.144;13.394;2023-04-24T06:47:26;1.58;;;0.55;;
16296;SDS011;8256;56.144;13.394;2023-04-24T06:50:11;2.23;;;0.97;;
16296;SDS011;8256;56.144;13.394;2023-04-24T06:52:57;2.28;;;0.82;;
16296;SDS011;8256;56.144;13.394;2023-04-24T06:55:42;1.30;;;0.22;;
16296;SDS011;8256;56.144;13.394;2023-04-24T06:58:30;1.55;;;0.60;;
16296;SDS011;8256;56.144;13.394;2023-04-24T07:01:15;2.17;;;0.75;;
16296;SDS011;8256;56.144;13.394;2023-04-24T07:04:01;2.57;;;1.03;;
16296;SDS011;8256;56.144;13.394;2023-04-24T07:06:47;1.58;;;0.52;;
16296;SDS011;8256;56.144;13.394;2023-04-24T07:09:32;4.22;;;0.65;;
16296;SDS011;8256;56.144;13.394;2023-04-24T07:12:20;1.15;;;0.30;;
16296;SDS011;8256;56.144;13.394;2023-04-24T07:15:07;1.83;;;0.57;;
16296;SDS011;8256;56.144;13.394;2023-04-24T07:17:53;2.07;;;0.63;;
16296;SDS011;8256;56.144;13.394;2023-04-24T07:20:39;2.20;;;0.88;;
16296;SDS011;8256;56.144;13.394;2023-04-24T07:23:24;3.13;;;0.70;;
16296;SDS011;8256;56.144;13.394;2023-04-24T07:26:10;2.42;;;0.85;;
16296;SDS011;8256;56.144;13.394;2023-04-24T07:28:56;1.38;;;0.60;;
16296;SDS011;8256;56.144;13.394;2023-04-24T07:31:41;2.80;;;1.23;;
16296;SDS011;8256;56.144;13.394;2023-04-24T07:34:27;2.25;;;1.10;;
16296;SDS011;8256;56.144;13.394;2023-04-24T07:37:12;2.42;;;0.60;;
16296;SDS011;8256;56.144;13.394;2023-04-24T07:39:58;1.65;;;0.60;;
16296;SDS011;8256;56.144;13.394;2023-04-24T07:42:43;1.60;;;0.45;;
16296;SDS011;8256;56.144;13.394;2023-04-24T07:45:29;3.23;;;0.73;;
16296;SDS011;8256;56.144;13.394;2023-04-24T07:48:16;1.95;;;0.85;;
16296;SDS011;8256;56.144;13.394;2023-04-24T07:51:03;2.65;;;1.25;;
16296;SDS011;8256;56.144;13.394;2023-04-24T07:53:48;2.20;;;0.70;;
16296;SDS011;8256;56.144;13.394;2023-04-24T07:56:34;2.17;;;0.85;;
16296;SDS011;8256;56.144;13.394;2023-04-24T07:59:23;2.33;;;0.80;;
16296;SDS011;8256;56.144;13.394;2023-04-24T08:02:09;2.03;;;0.68;;
16296;SDS011;8256;56.144;13.394;2023-04-24T08:04:55;2.13;;;0.60;;
16296;SDS011;8256;56.144;13.394;2023-04-24T08:07:40;4.45;;;1.10;;
16296;SDS011;8256;56.144;13.394;2023-04-24T08:10:27;2.50;;;0.93;;
16296;SDS011;8256;56.144;13.394;2023-04-24T08:13:13;2.70;;;1.20;;
16296;SDS011;8256;56.144;13.394;2023-04-24T08:15:58;3.65;;;1.10;;
16296;SDS011;8256;56.144;13.394;2023-04-24T08:18:44;2.53;;;0.90;;
16296;SDS011;8256;56.144;13.394;2023-04-24T08:21:30;3.30;;;0.90;;
16296;SDS011;8256;56.144;13.394;2023-04-24T08:24:15;2.72;;;1.08;;
16296;SDS011;8256;56.144;13.394;2023-04-24T08:27:01;3.47;;;1.07;;
16296;SDS011;8256;56.144;13.394;2023-04-24T08:29:47;3.15;;;1.48;;
16296;SDS011;8256;56.144;13.394;2023-04-24T08:32:32;3.30;;;0.90;;
16296;SDS011;8256;56.144;13.394;2023-04-24T08:35:18;3.13;;;1.38;;
16296;SDS011;8256;56.144;13.394;2023-04-24T08:38:04;2.53;;;0.95;;
16296;SDS011;8256;56.144;13.394;2023-04-24T08:40:49;6.83;;;1.17;;
16296;SDS011;8256;56.144;13.394;2023-04-24T08:43:35;2.05;;;0.80;;
16296;SDS011;8256;56.144;13.394;2023-04-24T08:46:21;4.45;;;1.63;;
16296;SDS011;8256;56.144;13.394;2023-04-24T08:49:07;3.72;;;1.20;;
16296;SDS011;8256;56.144;13.394;2023-04-24T08:51:53;2.35;;;0.80;;
16296;SDS011;8256;56.144;13.394;2023-04-24T08:54:38;2.77;;;0.80;;
16296;SDS011;8256;56.144;13.394;2023-04-24T08:57:25;3.30;;;1.00;;
16296;SDS011;8256;56.144;13.394;2023-04-24T09:00:11;2.78;;;1.00;;
16296;SDS011;8256;56.144;13.394;2023-04-24T09:02:57;3.25;;;1.05;;
16296;SDS011;8256;56.144;13.394;2023-04-24T09:05:43;2.55;;;0.80;;
16296;SDS011;8256;56.144;13.394;2023-04-24T09:08:31;1.83;;;0.67;;
16296;SDS011;8256;56.144;13.394;2023-04-24T09:11:17;3.03;;;1.05;;
16296;SDS011;8256;56.144;13.394;2023-04-24T09:14:03;3.35;;;1.48;;
16296;SDS011;8256;56.144;13.394;2023-04-24T09:16:49;1.65;;;0.43;;
16296;SDS011;8256;56.144;13.394;2023-04-24T09:19:35;1.88;;;0.57;;
16296;SDS011;8256;56.144;13.394;2023-04-24T09:22:20;1.27;;;0.40;;
16296;SDS011;8256;56.144;13.394;2023-04-24T09:25:07;1.45;;;0.35;;
16296;SDS011;8256;56.144;13.394;2023-04-24T09:27:53;2.50;;;0.63;;
16296;SDS011;8256;56.144;13.394;2023-04-24T09:30:38;2.63;;;0.93;;
16296;SDS011;8256;56.144;13.394;2023-04-24T09:33:24;2.03;;;0.68;;
16296;SDS011;8256;56.144;13.394;2023-04-24T09:36:09;1.97;;;0.60;;
16296;SDS011;8256;56.144;13.394;2023-04-24T09:38:57;2.63;;;0.52;;
16296;SDS011;8256;56.144;13.394;2023-04-24T09:41:50;2.47;;;1.25;;
16296;SDS011;8256;56.144;13.394;2023-04-24T09:44:36;1.67;;;0.55;;
16296;SDS011;8256;56.144;13.394;2023-04-24T09:47:21;1.63;;;0.50;;
16296;SDS011;8256;56.144;13.394;2023-04-24T09:50:14;2.37;;;0.87;;
16296;SDS011;8256;56.144;13.394;2023-04-24T09:53:03;2.78;;;0.90;;
16296;SDS011;8256;56.144;13.394;2023-04-24T09:55:49;2.17;;;0.73;;
16296;SDS011;8256;56.144;13.394;2023-04-24T09:58:36;1.85;;;0.73;;
16296;SDS011;8256;56.144;13.394;2023-04-24T10:01:31;1.52;;;0.73;;
16296;SDS011;8256;56.144;13.394;2023-04-24T10:04:24;2.67;;;0.80;;
16296;SDS011;8256;56.144;13.394;2023-04-24T10:07:10;1.70;;;0.47;;
16296;SDS011;8256;56.144;13.394;2023-04-24T10:09:56;1.65;;;0.65;;
16296;SDS011;8256;56.144;13.394;2023-04-24T10:12:41;2.22;;;0.70;;
16296;SDS011;8256;56.144;13.394;2023-04-24T10:15:27;2.05;;;0.70;;
16296;SDS011;8256;56.144;13.394;2023-04-24T10:18:13;2.90;;;0.80;;
16296;SDS011;8256;56.144;13.394;2023-04-24T10:20:59;5.65;;;0.90;;
16296;SDS011;8256;56.144;13.394;2023-04-24T10:23:45;2.88;;;0.82;;
16296;SDS011;8256;56.144;13.394;2023-04-24T10:26:31;3.13;;;0.80;;
16296;SDS011;8256;56.144;13.394;2023-04-24T10:29:18;2.40;;;0.85;;
16296;SDS011;8256;56.144;13.394;2023-04-24T10:32:06;2.43;;;0.60;;
16296;SDS011;8256;56.144;13.394;2023-04-24T10:34:51;2.42;;;0.70;;
16296;SDS011;8256;56.144;13.394;2023-04-24T10:37:38;2.28;;;0.68;;
16296;SDS011;8256;56.144;13.394;2023-04-24T10:40:34;2.33;;;0.77;;
16296;SDS011;8256;56.144;13.394;2023-04-24T10:43:20;2.42;;;0.82;;
16296;SDS011;8256;56.144;13.394;2023-04-24T10:46:05;4.10;;;0.70;;
16296;SDS011;8256;56.144;13.394;2023-04-24T10:48:52;2.65;;;0.90;;
16296;SDS011;8256;56.144;13.394;2023-04-24T10:51:45;2.90;;;0.85;;
16296;SDS011;8256;56.144;13.394;2023-04-24T10:54:34;2.45;;;0.68;;
16296;SDS011;8256;56.144;13.394;2023-04-24T11:00:15;3.67;;;1.00;;
16296;SDS011;8256;56.144;13.394;2023-04-24T11:03:01;2.33;;;0.57;;
16296;SDS011;8256;56.144;13.394;2023-04-24T11:08:39;3.28;;;1.02;;
16296;SDS011;8256;56.144;13.394;2023-04-24T11:11:25;2.08;;;0.60;;
16296;SDS011;8256;56.144;13.394;2023-04-24T11:14:14;2.20;;;0.67;;
16296;SDS011;8256;56.144;13.394;2023-04-24T11:17:00;2.28;;;0.57;;
16296;SDS011;8256;56.144;13.394;2023-04-24T11:19:49;2.22;;;0.75;;
16296;SDS011;8256;56.144;13.394;2023-04-24T11:22:35;2.55;;;0.63;;
16296;SDS011;8256;56.144;13.394;2023-04-24T11:25:21;2.25;;;0.70;;
16296;SDS011;8256;56.144;13.394;2023-04-24T11:28:07;3.20;;;1.03;;
16296;SDS011;8256;56.144;13.394;2023-04-24T11:30:59;3.00;;;1.25;;
16296;SDS011;8256;56.144;13.394;2023-04-24T11:34:09;2.22;;;0.63;;
16296;SDS011;8256;56.144;13.394;2023-04-24T11:36:55;2.55;;;0.82;;
16296;SDS011;8256;56.144;13.394;2023-04-24T11:39:40;2.17;;;0.70;;
16296;SDS011;8256;56.144;13.394;2023-04-24T11:42:26;2.43;;;0.70;;
16296;SDS011;8256;56.144;13.394;2023-04-24T11:45:16;1.75;;;0.52;;
16296;SDS011;8256;56.144;13.394;2023-04-24T11:48:03;2.67;;;0.82;;
16296;SDS011;8256;56.144;13.394;2023-04-24T11:50:48;3.35;;;0.80;;
16296;SDS011;8256;56.144;13.394;2023-04-24T11:53:34;3.22;;;1.17;;
16296;SDS011;8256;56.144;13.394;2023-04-24T11:56:24;1.40;;;0.43;;
16296;SDS011;8256;56.144;13.394;2023-04-24T11:59:10;2.47;;;0.77;;
16296;SDS011;8256;56.144;13.394;2023-04-24T12:01:56;2.83;;;0.65;;
16296;SDS011;8256;56.144;13.394;2023-04-24T12:04:41;3.63;;;1.33;;
16296;SDS011;8256;56.144;13.394;2023-04-24T12:07:27;1.95;;;0.50;;
16296;SDS011;8256;56.144;13.394;2023-04-24T12:10:12;2.70;;;0.83;;
16296;SDS011;8256;56.144;13.394;2023-04-24T12:12:58;3.15;;;0.75;;
16296;SDS011;8256;56.144;13.394;2023-04-24T12:15:45;1.92;;;0.65;;
16296;SDS011;8256;56.144;13.394;2023-04-24T12:18:30;3.20;;;1.00;;
16296;SDS011;8256;56.144;13.394;2023-04-24T12:21:20;2.00;;;0.70;;
16296;SDS011;8256;56.144;13.394;2023-04-24T12:24:06;1.90;;;0.53;;
16296;SDS011;8256;56.144;13.394;2023-04-24T12:26:52;1.52;;;0.40;;
16296;SDS011;8256;56.144;13.394;2023-04-24T12:29:50;2.03;;;0.60;;
16296;SDS011;8256;56.144;13.394;2023-04-24T12:32:40;2.33;;;0.70;;
16296;SDS011;8256;56.144;13.394;2023-04-24T12:35:29;2.55;;;0.73;;
16296;SDS011;8256;56.144;13.394;2023-04-24T12:38:21;4.03;;;1.20;;
16296;SDS011;8256;56.144;13.394;2023-04-24T12:41:07;2.17;;;0.70;;
16296;SDS011;8256;56.144;13.394;2023-04-24T12:43:53;2.38;;;0.75;;
16296;SDS011;8256;56.144;13.394;2023-04-24T12:46:39;2.80;;;0.80;;
16296;SDS011;8256;56.144;13.394;2023-04-24T12:49:25;2.42;;;0.80;;
16296;SDS011;8256;56.144;13.394;2023-04-24T12:52:11;2.70;;;0.87;;
16296;SDS011;8256;56.144;13.394;2023-04-24T12:54:57;2.60;;;0.77;;
16296;SDS011;8256;56.144;13.394;2023-04-24T12:57:42;3.42;;;1.15;;
16296;SDS011;8256;56.144;13.394;2023-04-24T13:00:28;2.92;;;0.98;;
16296;SDS011;8256;56.144;13.394;2023-04-24T13:03:14;2.15;;;0.73;;
16296;SDS011;8256;56.144;13.394;2023-04-24T13:05:59;2.43;;;0.67;;
16296;SDS011;8256;56.144;13.394;2023-04-24T13:08:45;2.83;;;0.98;;
16296;SDS011;8256;56.144;13.394;2023-04-24T13:11:32;4.55;;;1.48;;
16296;SDS011;8256;56.144;13.394;2023-04-24T13:14:18;4.68;;;2.05;;
16296;SDS011;8256;56.144;13.394;2023-04-24T13:17:03;3.50;;;1.65;;
16296;SDS011;8256;56.144;13.394;2023-04-24T13:19:49;3.90;;;1.77;;
16296;SDS011;8256;56.144;13.394;2023-04-24T13:22:35;4.18;;;1.98;;
16296;SDS011;8256;56.144;13.394;2023-04-24T13:25:21;3.67;;;1.98;;
16296;SDS011;8256;56.144;13.394;2023-04-24T13:28:08;3.83;;;1.95;;
16296;SDS011;8256;56.144;13.394;2023-04-24T13:30:53;4.13;;;1.98;;
16296;SDS011;8256;56.144;13.394;2023-04-24T13:33:39;4.00;;;1.60;;
16296;SDS011;8256;56.144;13.394;2023-04-24T13:36:25;5.10;;;1.60;;
16296;SDS011;8256;56.144;13.394;2023-04-24T13:39:11;6.90;;;1.65;;
16296;SDS011;8256;56.144;13.394;2023-04-24T13:41:57;3.00;;;1.08;;
16296;SDS011;8256;56.144;13.394;2023-04-24T13:44:43;3.72;;;1.42;;
16296;SDS011;8256;56.144;13.394;2023-04-24T13:47:28;3.27;;;1.13;;
16296;SDS011;8256;56.144;13.394;2023-04-24T13:50:14;4.20;;;1.33;;
16296;SDS011;8256;56.144;13.394;2023-04-24T13:53:00;3.00;;;1.05;;
16296;SDS011;8256;56.144;13.394;2023-04-24T13:55:46;3.60;;;1.33;;
16296;SDS011;8256;56.144;13.394;2023-04-24T13:58:32;3.90;;;1.13;;
16296;SDS011;8256;56.144;13.394;2023-04-24T14:01:17;4.07;;;1.27;;
16296;SDS011;8256;56.144;13.394;2023-04-24T14:04:03;2.90;;;0.90;;
16296;SDS011;8256;56.144;13.394;2023-04-24T14:06:49;2.65;;;0.90;;
16296;SDS011;8256;56.144;13.394;2023-04-24T14:09:34;2.78;;;1.00;;
16296;SDS011;8256;56.144;13.394;2023-04-24T14:12:20;3.58;;;1.05;;
16296;SDS011;8256;56.144;13.394;2023-04-24T14:15:06;3.10;;;1.23;;
16296;SDS011;8256;56.144;13.394;2023-04-24T14:17:52;3.15;;;1.20;;
16296;SDS011;8256;56.144;13.394;2023-04-24T14:20:37;3.25;;;1.08;;
16296;SDS011;8256;56.144;13.394;2023-04-24T14:23:23;2.47;;;0.68;;
16296;SDS011;8256;56.144;13.394;2023-04-24T14:26:08;3.63;;;1.42;;
16296;SDS011;8256;56.144;13.394;2023-04-24T14:28:54;2.70;;;0.90;;
16296;SDS011;8256;56.144;13.394;2023-04-24T14:31:40;3.17;;;1.10;;
16296;SDS011;8256;56.144;13.394;2023-04-24T14:34:26;3.40;;;1.42;;
16296;SDS011;8256;56.144;13.394;2023-04-24T14:37:21;3.30;;;1.17;;
16296;SDS011;8256;56.144;13.394;2023-04-24T14:40:07;3.83;;;1.70;;
16296;SDS011;8256;56.144;13.394;2023-04-24T14:42:53;3.37;;;1.10;;
16296;SDS011;8256;56.144;13.394;2023-04-24T14:45:39;4.22;;;1.98;;
16296;SDS011;8256;56.144;13.394;2023-04-24T14:48:26;4.05;;;1.73;;
16296;SDS011;8256;56.144;13.394;2023-04-24T14:51:12;3.38;;;1.30;;
16296;SDS011;8256;56.144;13.394;2023-04-24T14:53:58;3.75;;;1.50;;
16296;SDS011;8256;56.144;13.394;2023-04-24T14:56:43;5.30;;;1.63;;
16296;SDS011;8256;56.144;13.394;2023-04-24T14:59:29;3.45;;;1.00;;
16296;SDS011;8256;56.144;13.394;2023-04-24T15:02:16;2.47;;;0.82;;
16296;SDS011;8256;56.144;13.394;2023-04-24T15:05:02;4.20;;;1.80;;
16296;SDS011;8256;56.144;13.394;2023-04-24T15:07:48;3.83;;;1.52;;
16296;SDS011;8256;56.144;13.394;2023-04-24T15:10:34;3.47;;;1.03;;
16296;SDS011;8256;56.144;13.394;2023-04-24T15:13:20;3.50;;;1.60;;
16296;SDS011;8256;56.144;13.394;2023-04-24T15:16:06;3.58;;;1.42;;
16296;SDS011;8256;56.144;13.394;2023-04-24T15:18:52;2.95;;;0.98;;
16296;SDS011;8256;56.144;13.394;2023-04-24T15:21:37;3.45;;;1.25;;
16296;SDS011;8256;56.144;13.394;2023-04-24T15:24:23;3.40;;;1.00;;
16296;SDS011;8256;56.144;13.394;2023-04-24T15:27:09;3.28;;;1.08;;
16296;SDS011;8256;56.144;13.394;2023-04-24T15:29:55;3.33;;;1.00;;
16296;SDS011;8256;56.144;13.394;2023-04-24T15:32:41;2.90;;;1.08;;
16296;SDS011;8256;56.144;13.394;2023-04-24T15:35:26;2.92;;;1.08;;
16296;SDS011;8256;56.144;13.394;2023-04-24T15:38:12;3.13;;;0.87;;
16296;SDS011;8256;56.144;13.394;2023-04-24T15:40:57;6.10;;;1.80;;
16296;SDS011;8256;56.144;13.394;2023-04-24T15:43:43;4.03;;;0.90;;
16296;SDS011;8256;56.144;13.394;2023-04-24T15:46:28;3.80;;;0.93;;
16296;SDS011;8256;56.144;13.394;2023-04-24T15:49:14;3.50;;;1.35;;
16296;SDS011;8256;56.144;13.394;2023-04-24T15:52:00;2.80;;;1.03;;
16296;SDS011;8256;56.144;13.394;2023-04-24T15:54:45;4.30;;;1.23;;
16296;SDS011;8256;56.144;13.394;2023-04-24T15:57:31;5.57;;;0.88;;
16296;SDS011;8256;56.144;13.394;2023-04-24T16:00:16;2.65;;;0.90;;
16296;SDS011;8256;56.144;13.394;2023-04-24T16:03:02;2.88;;;1.05;;
16296;SDS011;8256;56.144;13.394;2023-04-24T16:05:48;3.57;;;1.20;;
16296;SDS011;8256;56.144;13.394;2023-04-24T16:08:33;3.63;;;1.27;;
16296;SDS011;8256;56.144;13.394;2023-04-24T16:11:19;3.70;;;1.50;;
16296;SDS011;8256;56.144;13.394;2023-04-24T16:14:05;3.03;;;1.23;;
16296;SDS011;8256;56.144;13.394;2023-04-24T16:16:50;3.33;;;1.10;;
16296;SDS011;8256;56.144;13.394;2023-04-24T16:19:36;2.50;;;0.93;;
16296;SDS011;8256;56.144;13.394;2023-04-24T16:22:21;3.85;;;1.38;;
16296;SDS011;8256;56.144;13.394;2023-04-24T16:25:07;2.95;;;0.80;;
16296;SDS011;8256;56.144;13.394;2023-04-24T16:27:53;4.28;;;1.77;;
16296;SDS011;8256;56.144;13.394;2023-04-24T16:30:39;3.78;;;1.05;;
16296;SDS011;8256;56.144;13.394;2023-04-24T16:33:24;2.37;;;0.70;;
16296;SDS011;8256;56.144;13.394;2023-04-24T16:36:10;2.22;;;0.80;;
16296;SDS011;8256;56.144;13.394;2023-04-24T16:38:57;2.53;;;0.77;;
16296;SDS011;8256;56.144;13.394;2023-04-24T16:41:45;2.65;;;0.80;;
16296;SDS011;8256;56.144;13.394;2023-04-24T16:44:30;1.45;;;0.32;;
16296;SDS011;8256;56.144;13.394;2023-04-24T16:47:16;1.77;;;0.60;;